Time,TemperatureF,DewpointF,PressureIn,WindDirection,WindDirectionDegrees,WindSpeedMPH,WindSpeedGustMPH,Humidity,HourlyPrecipIn,Conditions,Clouds,dailyrainin,SoftwareType,DateUTC
2013-01-12 00:02:00,59.0,47.0,29.84,ESE,120,1.0,3.0,64,0.00,,,0.00,,2013-01-12 06:02:00,
2013-01-12 00:12:00,59.0,47.0,29.84,ESE,120,1.0,3.0,64,0.00,,,0.00,,2013-01-12 06:12:00,
2013-01-12 00:22:00,59.0,47.0,29.83,SE,128,1.0,7.0,65,0.00,,,0.00,,2013-01-12 06:22:00,
2013-01-12 00:32:00,59.0,48.0,29.85,WNW,288,1.0,4.0,66,0.00,,,0.00,,2013-01-12 06:32:00,
2013-01-12 00:42:00,59.0,48.0,29.85,WNW,288,1.0,4.0,66,0.00,,,0.00,,2013-01-12 06:42:00,
2013-01-12 00:52:00,59.0,48.0,29.88,WSW,253,1.0,4.0,66,0.00,,,0.00,,2013-01-12 06:52:00,
2013-01-12 01:02:00,59.0,48.0,29.88,West,275,0.0,2.0,66,0.00,,,0.00,,2013-01-12 07:02:00,
2013-01-12 01:12:00,59.0,48.0,29.88,West,275,0.0,2.0,66,0.00,,,0.00,,2013-01-12 07:12:00,
2013-01-12 01:22:00,59.0,48.0,29.88,SSW,194,0.0,0.0,67,0.00,,,0.00,,2013-01-12 07:22:00,
2013-01-12 01:32:00,59.0,48.0,29.88,SSW,194,0.0,0.0,68,0.00,,,0.00,,2013-01-12 07:32:00,
2013-01-12 01:42:00,59.0,48.0,29.88,SSW,194,0.0,0.0,68,0.00,,,0.00,,2013-01-12 07:42:00,
2013-01-12 01:52:00,58.0,48.0,29.89,SSW,194,0.0,0.0,70,0.00,,,0.00,,2013-01-12 07:52:00,
2013-01-12 02:02:00,58.0,48.0,29.89,SSW,194,0.0,0.0,70,0.00,,,0.00,,2013-01-12 08:02:00,
2013-01-12 02:11:00,58.0,48.0,29.89,SSW,194,0.0,0.0,70,0.00,,,0.00,,2013-01-12 08:11:00,
2013-01-12 02:22:00,57.0,48.0,29.91,SSW,194,0.0,0.0,73,0.00,,,0.00,,2013-01-12 08:22:00,
2013-01-12 02:32:00,57.0,48.0,29.90,North,7,0.0,3.0,71,0.00,,,0.00,,2013-01-12 08:32:00,
2013-01-12 02:42:00,57.0,48.0,29.90,North,7,0.0,3.0,71,0.00,,,0.00,,2013-01-12 08:42:00,
2013-01-12 02:52:00,57.0,35.0,29.90,NW,316,0.0,1.0,43,0.00,,,0.00,,2013-01-12 08:52:00,
2013-01-12 03:02:00,57.0,31.0,29.91,WNW,297,0.0,3.0,37,0.00,,,0.00,,2013-01-12 09:02:00,
2013-01-12 03:12:00,57.0,31.0,29.91,WNW,297,0.0,3.0,37,0.00,,,0.00,,2013-01-12 09:12:00,
2013-01-12 03:22:00,57.0,32.0,29.91,NNW,335,0.0,1.0,38,0.00,,,0.00,,2013-01-12 09:22:00,
2013-01-12 03:32:00,57.0,29.0,29.90,North,352,0.0,4.0,34,0.00,,,0.00,,2013-01-12 09:32:00,
2013-01-12 03:42:00,57.0,29.0,29.90,North,352,0.0,4.0,34,0.00,,,0.00,,2013-01-12 09:42:00,
2013-01-12 03:52:00,57.0,28.0,29.91,WNW,286,1.0,3.0,33,0.00,,,0.00,,2013-01-12 09:52:00,
2013-01-12 04:02:00,56.0,29.0,29.90,North,356,1.0,4.0,35,0.00,,,0.00,,2013-01-12 10:02:00,
2013-01-12 04:12:00,56.0,29.0,29.90,North,356,1.0,4.0,35,0.00,,,0.00,,2013-01-12 10:12:00,
2013-01-12 04:22:00,56.0,29.0,29.91,NW,314,1.0,4.0,36,0.00,,,0.00,,2013-01-12 10:22:00,
2013-01-12 04:32:00,55.0,29.0,29.91,North,351,2.0,7.0,37,0.00,,,0.00,,2013-01-12 10:32:00,
2013-01-12 04:42:00,55.0,29.0,29.91,North,351,2.0,7.0,37,0.00,,,0.00,,2013-01-12 10:42:00,
2013-01-12 04:52:00,54.0,28.0,29.91,NNE,22,5.0,8.0,37,0.00,,,0.00,,2013-01-12 10:52:00,
2013-01-12 05:02:00,54.0,28.0,29.91,NNE,22,5.0,8.0,37,0.00,,,0.00,,2013-01-12 11:02:00,
2013-01-12 05:12:00,54.0,28.0,29.91,NNE,22,5.0,8.0,37,0.00,,,0.00,,2013-01-12 11:12:00,
2013-01-12 05:22:00,52.0,28.0,29.90,NNE,13,4.0,11.0,39,0.00,,,0.00,,2013-01-12 11:22:00,
2013-01-12 05:32:00,52.0,29.0,29.89,NW,323,3.0,9.0,41,0.00,,,0.00,,2013-01-12 11:32:00,
2013-01-12 05:42:00,52.0,29.0,29.89,NW,323,3.0,9.0,41,0.00,,,0.00,,2013-01-12 11:42:00,
2013-01-12 05:52:00,51.0,29.0,29.89,NNE,25,7.0,17.0,43,0.00,,,0.00,,2013-01-12 11:52:00,
2013-01-12 06:03:00,49.0,30.0,29.92,North,1,5.0,11.0,48,0.00,,,0.00,,2013-01-12 12:03:00,
2013-01-12 06:12:00,49.0,30.0,29.92,North,1,5.0,11.0,48,0.00,,,0.00,,2013-01-12 12:12:00,
2013-01-12 06:22:00,48.0,32.0,29.95,NNW,338,6.0,12.0,53,0.00,,,0.00,,2013-01-12 12:22:00,
2013-01-12 06:32:00,48.0,34.0,29.97,NNW,345,4.0,11.0,58,0.00,,,0.00,,2013-01-12 12:32:00,
2013-01-12 06:42:00,48.0,34.0,29.97,NNW,345,4.0,11.0,58,0.00,,,0.00,,2013-01-12 12:42:00,
2013-01-12 06:52:00,46.0,33.0,29.98,NNE,13,8.0,19.0,60,0.00,,,0.00,,2013-01-12 12:52:00,
2013-01-12 07:02:00,44.0,32.0,29.98,NNW,330,3.0,13.0,63,0.00,,,0.00,,2013-01-12 13:02:00,
2013-01-12 07:12:00,44.0,32.0,29.98,NNW,330,3.0,13.0,63,0.00,,,0.00,,2013-01-12 13:12:00,
2013-01-12 07:22:00,43.0,32.0,29.99,North,354,6.0,14.0,66,0.00,,,0.00,,2013-01-12 13:22:00,
2013-01-12 07:33:00,42.0,33.0,29.99,NNE,20,5.0,14.0,69,0.00,,,0.00,,2013-01-12 13:33:00,
2013-01-12 07:42:00,42.0,33.0,29.99,NNE,20,5.0,14.0,69,0.00,,,0.00,,2013-01-12 13:42:00,
2013-01-12 07:52:00,41.0,32.0,30.01,NW,323,3.0,12.0,71,0.00,,,0.00,,2013-01-12 13:52:00,
2013-01-12 08:02:00,41.0,33.0,30.01,North,11,5.0,15.0,73,0.00,,,0.00,,2013-01-12 14:02:00,
2013-01-12 08:12:00,41.0,33.0,30.01,North,11,5.0,15.0,73,0.00,,,0.00,,2013-01-12 14:12:00,
2013-01-12 08:22:00,41.0,33.0,30.03,North,350,4.0,11.0,73,0.00,,,0.00,,2013-01-12 14:22:00,
2013-01-12 08:33:00,40.0,33.0,30.01,NNW,337,3.0,13.0,75,0.00,,,0.00,,2013-01-12 14:33:00,
2013-01-12 08:43:00,40.0,33.0,30.01,NNW,337,3.0,13.0,75,0.00,,,0.00,,2013-01-12 14:43:00,
2013-01-12 08:53:00,40.0,33.0,30.03,NW,314,4.0,-999.0,75,-99.99,,,-99.99,,2013-01-12 14:53:00,
2013-01-12 09:03:00,39.0,31.0,30.03,NNW,333,6.0,17.0,73,0.00,,,0.00,,2013-01-12 15:03:00,
2013-01-12 09:12:00,39.0,31.0,30.03,NNW,333,6.0,17.0,73,0.00,,,0.00,,2013-01-12 15:12:00,
2013-01-12 09:22:00,39.0,32.0,30.03,NW,308,4.0,16.0,77,0.00,,,0.00,,2013-01-12 15:22:00,
2013-01-12 09:33:00,38.0,32.0,30.03,NNE,33,3.0,10.0,80,0.01,,,0.01,,2013-01-12 15:33:00,
2013-01-12 09:43:00,38.0,32.0,30.03,NNE,33,3.0,10.0,80,0.01,,,0.01,,2013-01-12 15:43:00,
2013-01-12 09:53:00,37.0,33.0,30.03,NNW,328,2.0,9.0,84,0.05,,,0.05,,2013-01-12 15:53:00,
2013-01-12 10:03:00,37.0,31.0,30.01,North,6,6.0,14.0,80,0.06,,,0.06,,2013-01-12 16:03:00,
2013-01-12 10:12:00,37.0,31.0,30.01,North,6,6.0,14.0,80,0.06,,,0.06,,2013-01-12 16:12:00,
2013-01-12 10:23:00,37.0,31.0,30.02,North,351,4.0,12.0,79,0.06,,,0.06,,2013-01-12 16:23:00,
2013-01-12 10:33:00,37.0,31.0,30.03,NNW,328,4.0,14.0,78,0.05,,,0.06,,2013-01-12 16:33:00,
2013-01-12 10:42:00,37.0,31.0,30.03,NNW,328,4.0,14.0,78,0.05,,,0.06,,2013-01-12 16:42:00,
2013-01-12 10:52:00,37.0,30.0,30.03,NE,39,4.0,13.0,76,0.01,,,0.06,,2013-01-12 16:52:00,
2013-01-12 11:02:00,37.0,30.0,30.04,North,1,6.0,16.0,75,0.00,,,0.06,,2013-01-12 17:02:00,
2013-01-12 11:12:00,37.0,30.0,30.04,North,1,6.0,16.0,75,0.00,,,0.06,,2013-01-12 17:12:00,
2013-01-12 11:22:00,37.0,29.0,30.04,NW,319,4.0,14.0,72,0.00,,,0.06,,2013-01-12 17:22:00,
2013-01-12 11:33:00,37.0,28.0,30.01,NW,319,8.0,13.0,70,0.00,,,0.06,,2013-01-12 17:33:00,
2013-01-12 11:42:00,37.0,28.0,30.01,NW,319,8.0,13.0,70,0.00,,,0.06,,2013-01-12 17:42:00,
2013-01-12 11:53:00,37.0,28.0,30.00,NNE,25,6.0,16.0,70,0.00,,,0.06,,2013-01-12 17:53:00,
2013-01-12 12:03:00,37.0,28.0,30.01,NW,325,5.0,14.0,70,0.00,,,0.06,,2013-01-12 18:03:00,
2013-01-12 12:12:00,37.0,28.0,30.01,NW,325,5.0,14.0,70,0.00,,,0.06,,2013-01-12 18:12:00,
2013-01-12 12:22:00,36.0,27.0,29.99,North,356,4.0,13.0,69,0.00,,,0.06,,2013-01-12 18:22:00,
2013-01-12 12:33:00,36.0,27.0,29.98,NNW,343,6.0,15.0,70,0.00,,,0.06,,2013-01-12 18:33:00,
2013-01-12 12:42:00,36.0,27.0,29.98,NNW,343,6.0,15.0,70,0.00,,,0.06,,2013-01-12 18:42:00,
2013-01-12 12:52:00,36.0,27.0,29.96,NNE,13,7.0,20.0,70,0.00,,,0.06,,2013-01-12 18:52:00,
2013-01-12 13:03:00,36.0,27.0,29.93,NE,39,3.0,14.0,70,0.00,,,0.06,,2013-01-12 19:03:00,
2013-01-12 13:12:00,36.0,27.0,29.93,NE,39,3.0,14.0,70,0.00,,,0.06,,2013-01-12 19:12:00,
2013-01-12 13:23:00,36.0,26.0,29.94,ENE,67,5.0,13.0,68,0.00,,,0.06,,2013-01-12 19:23:00,
2013-01-12 13:33:00,36.0,27.0,29.97,NNW,333,3.0,12.0,70,0.00,,,0.06,,2013-01-12 19:33:00,
2013-01-12 13:43:00,36.0,27.0,29.97,NNW,333,3.0,12.0,70,0.00,,,0.06,,2013-01-12 19:43:00,
2013-01-12 13:52:00,34.0,28.0,29.97,NNE,13,2.0,10.0,80,0.08,,,0.14,,2013-01-12 19:52:00,
2013-01-12 14:03:00,33.0,28.0,29.96,NE,44,4.0,14.0,83,0.15,,,0.21,,2013-01-12 20:03:00,
2013-01-12 14:12:00,33.0,28.0,29.96,NE,44,4.0,14.0,83,0.15,,,0.21,,2013-01-12 20:12:00,
2013-01-12 14:22:00,33.0,29.0,29.96,NNE,28,4.0,10.0,86,0.18,,,0.24,,2013-01-12 20:22:00,
2013-01-12 14:33:00,33.0,29.0,29.92,NNE,32,4.0,13.0,86,0.20,,,0.26,,2013-01-12 20:33:00,
2013-01-12 14:42:00,33.0,29.0,29.92,NNE,32,4.0,13.0,86,0.20,,,0.26,,2013-01-12 20:42:00,
2013-01-12 14:53:00,33.0,29.0,29.94,NNE,25,4.0,11.0,86,0.11,,,0.26,,2013-01-12 20:53:00,
2013-01-12 15:03:00,33.0,29.0,29.95,NNE,33,3.0,14.0,86,0.05,,,0.26,,2013-01-12 21:03:00,
2013-01-12 15:12:00,33.0,29.0,29.95,NNE,33,3.0,14.0,86,0.05,,,0.26,,2013-01-12 21:12:00,
2013-01-12 15:22:00,32.0,28.0,30.00,North,349,4.0,8.0,86,0.04,,,0.28,,2013-01-12 21:22:00,
2013-01-12 15:33:00,31.0,28.0,29.93,NW,319,7.0,17.0,88,0.09,,,0.35,,2013-01-12 21:33:00,
2013-01-12 15:43:00,31.0,28.0,29.93,NW,319,7.0,17.0,88,0.09,,,0.35,,2013-01-12 21:43:00,
2013-01-12 15:52:00,31.0,28.0,29.95,NW,324,4.0,17.0,89,0.09,,,0.35,,2013-01-12 21:52:00,
2013-01-12 16:03:00,31.0,28.0,29.96,NNW,338,4.0,15.0,87,0.09,,,0.35,,2013-01-12 22:03:00,
2013-01-12 16:12:00,31.0,28.0,29.96,NNW,338,4.0,15.0,87,0.09,,,0.35,,2013-01-12 22:12:00,
2013-01-12 16:22:00,31.0,28.0,29.98,North,354,3.0,9.0,88,0.07,,,0.35,,2013-01-12 22:22:00,
2013-01-12 16:33:00,30.0,27.0,29.99,NNE,16,6.0,17.0,87,0.01,,,0.35,,2013-01-12 22:33:00,
2013-01-12 16:43:00,30.0,27.0,29.99,NNE,16,6.0,17.0,87,0.01,,,0.35,,2013-01-12 22:43:00,
2013-01-12 16:52:00,30.0,26.0,29.99,NNW,340,7.0,18.0,86,0.00,,,0.35,,2013-01-12 22:52:00,
2013-01-12 17:03:00,30.0,27.0,29.98,North,351,4.0,27.0,87,0.01,,,0.36,,2013-01-12 23:03:00,
2013-01-12 17:12:00,30.0,27.0,29.98,North,351,4.0,27.0,87,0.01,,,0.36,,2013-01-12 23:12:00,
2013-01-12 17:22:00,30.0,27.0,30.02,NNE,20,4.0,18.0,88,0.01,,,0.36,,2013-01-12 23:22:00,
2013-01-12 17:33:00,30.0,27.0,30.02,North,360,3.0,12.0,90,0.02,,,0.37,,2013-01-12 23:33:00,
2013-01-12 17:42:00,30.0,27.0,30.02,North,360,3.0,12.0,90,0.02,,,0.37,,2013-01-12 23:42:00,
2013-01-12 17:53:00,30.0,27.0,29.99,ENE,61,7.0,18.0,90,0.03,,,0.38,,2013-01-12 23:53:00,
2013-01-12 18:03:00,30.0,27.0,29.99,North,359,6.0,17.0,90,0.05,,,0.41,,2013-01-13 00:03:00,
2013-01-12 18:12:00,30.0,27.0,29.99,North,359,6.0,17.0,90,0.05,,,0.41,,2013-01-13 00:12:00,
2013-01-12 18:22:00,30.0,28.0,30.01,NNW,334,4.0,11.0,91,0.06,,,0.42,,2013-01-13 00:22:00,
2013-01-12 18:33:00,30.0,28.0,30.03,NW,309,3.0,6.0,91,0.05,,,0.42,,2013-01-13 00:33:00,
2013-01-12 18:43:00,30.0,28.0,30.03,NW,309,3.0,6.0,91,0.05,,,0.42,,2013-01-13 00:43:00,
2013-01-12 18:53:00,29.0,27.0,30.04,WNW,300,1.0,8.0,91,0.04,,,0.42,,2013-01-13 00:53:00,
2013-01-12 19:02:00,29.0,26.0,30.03,NNW,334,4.0,13.0,90,0.02,,,0.43,,2013-01-13 01:02:00,
2013-01-12 19:12:00,29.0,26.0,30.03,NNW,334,4.0,13.0,90,0.02,,,0.43,,2013-01-13 01:12:00,
2013-01-12 19:22:00,29.0,26.0,30.05,NNW,345,1.0,9.0,90,0.01,,,0.43,,2013-01-13 01:22:00,
2013-01-12 19:32:00,29.0,26.0,30.06,North,353,4.0,8.0,90,0.01,,,0.43,,2013-01-13 01:32:00,
2013-01-12 19:43:00,29.0,26.0,30.06,North,353,4.0,8.0,90,0.01,,,0.43,,2013-01-13 01:43:00,
2013-01-12 19:53:00,28.0,25.0,30.06,NNE,13,3.0,9.0,90,0.01,,,0.43,,2013-01-13 01:53:00,
2013-01-12 20:02:00,28.0,25.0,30.06,West,262,1.0,9.0,90,0.00,,,0.43,,2013-01-13 02:02:00,
2013-01-12 20:12:00,28.0,25.0,30.06,West,262,1.0,9.0,90,0.00,,,0.43,,2013-01-13 02:12:00,
2013-01-12 20:22:00,28.0,25.0,30.06,North,356,3.0,10.0,90,0.00,,,0.43,,2013-01-13 02:22:00,
2013-01-12 20:32:00,28.0,25.0,30.06,North,353,2.0,8.0,90,0.00,,,0.43,,2013-01-13 02:32:00,
2013-01-12 20:42:00,28.0,25.0,30.06,North,353,2.0,8.0,90,0.00,,,0.43,,2013-01-13 02:42:00,
2013-01-12 20:53:00,27.0,24.0,30.07,NNE,19,4.0,9.0,87,0.00,,,0.43,,2013-01-13 02:53:00,
2013-01-12 21:02:00,27.0,23.0,30.08,NW,321,4.0,9.0,86,0.00,,,0.43,,2013-01-13 03:02:00,
2013-01-12 21:12:00,27.0,23.0,30.08,NW,321,4.0,9.0,86,0.00,,,0.43,,2013-01-13 03:12:00,
2013-01-12 21:22:00,27.0,24.0,30.10,NW,305,1.0,7.0,88,0.00,,,0.43,,2013-01-13 03:22:00,
2013-01-12 21:33:00,27.0,24.0,30.09,North,350,1.0,5.0,89,0.00,,,0.43,,2013-01-13 03:33:00,
2013-01-12 21:42:00,27.0,24.0,30.09,North,350,1.0,5.0,89,0.00,,,0.43,,2013-01-13 03:42:00,
2013-01-12 21:53:00,27.0,24.0,30.10,North,356,1.0,4.0,89,0.00,,,0.43,,2013-01-13 03:53:00,
2013-01-12 22:02:00,27.0,24.0,30.09,NW,325,3.0,6.0,87,0.00,,,0.43,,2013-01-13 04:02:00,
2013-01-12 22:12:00,27.0,24.0,30.09,NW,325,3.0,6.0,87,0.00,,,0.43,,2013-01-13 04:12:00,
2013-01-12 22:22:00,27.0,23.0,30.09,NNW,339,3.0,7.0,84,0.00,,,0.43,,2013-01-13 04:22:00,
2013-01-12 22:32:00,26.0,21.0,30.09,NNW,341,3.0,11.0,82,0.00,,,0.43,,2013-01-13 04:32:00,
2013-01-12 22:42:00,26.0,21.0,30.09,NNW,341,3.0,11.0,82,0.00,,,0.43,,2013-01-13 04:42:00,
2013-01-12 22:53:00,26.0,21.0,30.09,NW,319,2.0,11.0,82,0.00,,,0.43,,2013-01-13 04:53:00,
2013-01-12 23:03:00,26.0,21.0,30.10,NNW,347,2.0,12.0,82,0.00,,,0.43,,2013-01-13 05:03:00,
2013-01-12 23:12:00,26.0,21.0,30.10,NNW,347,2.0,12.0,82,0.00,,,0.43,,2013-01-13 05:12:00,
2013-01-12 23:22:00,26.0,22.0,30.12,NNE,28,2.0,6.0,83,0.00,,,0.43,,2013-01-13 05:22:00,
2013-01-12 23:32:00,26.0,22.0,30.13,NW,318,1.0,6.0,85,0.00,,,0.43,,2013-01-13 05:32:00,
2013-01-12 23:42:00,26.0,22.0,30.13,NW,318,1.0,6.0,85,0.00,,,0.43,,2013-01-13 05:42:00,
2013-01-12 23:53:00,25.0,21.0,30.14,WNW,298,2.0,6.0,85,0.00,,,0.43,,2013-01-13 05:53:00,